Main page


Airports :

Yüksekova, Turkey

Hakkari–Yüksekova Airport

latitude: 37-33-06N, longitude: 44-14-01E, elevation: 1950 m

Current weather observation

The report was made 10 hours and 33 minutes ago, at 12:50 UTC
Wind 10 kt from the West/Southwest, varying between South/Southwest and West/Northwest
Temperature 14°C
Humidity 36%
Pressure 1019 hPa
Visibility 10 km or more
no clouds below 1500 m and no cumulonimbus

METAR: LTCW 221250Z 24010KT 200V290 CAVOK 14/M01 Q1019

Time: 02:23 (23:23 UTC)


The report was made 9 hours and 43 minutes ago, at 13:40 UTC
Forecast valid from 22 at 15 UTC to 22 at 24 UTC
Wind 2 kt from variable directions
Visibility 10 km or more
Few clouds at a height of 4000 ft
Scattered clouds at a height of 12000 ft

TAF: LTCW 221340Z 2215/2224 VRB02KT 9999 FEW040 SCT120

Weather observations and forecasts of more than 4000 airports (METAR and TAF reports).

The available stations are represented by yellow and red dots on the map.

Hover mouse over dot to see the name of the station.

Then click to see weather observations and forecasts.

To change the map : click on the green buttons with a black cross to zoom in, on the green button with a dash to zoom out, or on the green arrows for adjacent maps.